Observations at @ca for Latest


KACV 191753Z AUTO 29006KT 5SM HZ OVC008 14/11 A2981 RMK AO2 SLP099 T01390111
 10144 20111 58004=
KAPC 191754Z 20011KT 10SM CLR 20/13 A2978 RMK AO2 SLP076 T02000128 10200 20139
 50003=
KAVX 191751Z AUTO VRB04KT 10SM CLR 21/13 A2986 RMK AO2 SLP094 T02110133 10228
 20128 50002=
KBAB 191758Z AUTO 17007KT 10SM CLR 34/11 A2970 RMK AO2 SLP059 T03400105 10346
 20201 58001 PNO $=
KBFL 191754Z 29008KT 9SM CLR 37/07 A2972 RMK AO2 SLP055 T03670067 10372 20283
 58002=
KBIH 191756Z AUTO 04009KT 10SM CLR 38/M02 A2994 RMK AO2 SLP076 T03781022 10378
 20139 58015=
KBLH 191752Z AUTO 17018KT 10SM CLR 40/13 A2962 RMK AO2 SLP022 T04000133 10400
 20311 50001 $=
KBLU 191752Z AUTO 18007KT 150V220 10SM CLR 28/06 A3010 RMK AO2 SLP070 T02780056
 10278 20228 50003=
KBUR 191753Z 13007KT 10SM CLR 25/16 A2980 RMK AO2 SLP078 T02500156 10256 20178
 58005 $=
KBYS 191758Z AUTO 17006KT 10SM SCT160 40/01 A2979 RMK AO2 SLP047 T03980010
 10400 20282 57007 $=
KCCR 191753Z 34009KT 10SM CLR 27/13 A2974 RMK AO2 SLP056 T02670128 10272 20156
 58002=
KCEC 191756Z AUTO 35016G24KT 4SM HZ CLR 14/09 A2980 RMK AO2 SLP093 T01390094
 10144 20089 58010=
KCIC 191754Z VRB05KT 40SM SKC 33/11 A2973=
KCMA 191755Z 23005KT 6SM OVC007 20/15 A2982 RMK AO2 SLP107 T02000150 10200
 20183 58001=
KCMA 191821Z 23005KT 9SM OVC010 21/15 A2982 RMK AO2 T02060150=
KCNO 191753Z 10SM FEW180 29/16 A2981 RMK AO2 SLP088 T02940161 10294 20183 58006=
KCQT 191752Z AUTO 00000KT 8SM CLR 23/16 A2981 RMK AO2 SLP091 T02330161 10239
 20189 58002=
KCRQ 191753Z 25007KT 210V290 9SM OVC009 19/15 A2982 RMK AO2 SLP094 T01890150
 10189 20167 58000=
KCRQ 191810Z 25007KT 9SM OVC010 18/15 A2982=
KCRQ 191810Z 25007KT 9SM OVC010 18/15 A2982 RMK AO2 T01830150=
KCRQ 191825Z 25006KT 9SM BKN009 18/15 A2982 RMK AO2 T01830150=
KDAG 191750Z AUTO 29014KT 10SM CLR 41/06 A2976 RMK AO2 SLP039 T04060061 10406
 20289 58006=
KEDW 191758Z 22007KT 50SM FEW150 39/06 A2978 RMK AO2A SLP051 T03900055 10390
 20236 57009=
KEED 191756Z AUTO VRB03KT 10SM CLR 44/04 A2964 RMK AO2 SLP992 T04390039 10439
 20333 58003=
KEMT 191748Z 21004KT 8SM CLR 26/17 A2981=
KFAT 191753Z 13007KT 10SM FEW080 36/12 A2971 RMK AO2 SLP056 CU OMTNS NE
 T03560117 10356 20256 58003 $=
KFOT 191750Z AUTO 31006KT 9SM FEW095 SCT120 18/13 A2980 RMK AO1=
KFOT 191810Z AUTO 31006KT 7SM FEW075 SCT120 19/14 A2980 RMK AO1=
KFUL 191753Z 20005KT 8SM SCT012 24/16 A2980 RMK AO2 SLP090 T02440161 10244
 20189 58002=
KHHR 191753Z 25008KT 6SM HZ OVC010 19/16 A2983 RMK AO2 SLP099 T01940156 10194
 20183 51001=
KHJO 191753Z AUTO 00000KT 10SM CLR 34/15 A2972 RMK AO2 SLP062 T03390150 10339
 20200 58003=
KHWD 191754Z 29007KT 10SM CLR 23/13 A2977 RMK AO2 SLP091 T02330133 10233 20133
 50003=
KIPL 191753Z AUTO 13007KT 10SM CLR 39/17 A2959 RMK AO2 SLP022 T03940167 10400
 20272 58003=
KIZA 191755Z AUTO 26004KT 10SM CLR 27/12 A2981 RMK AO2=
KIZA 191815Z AUTO 27005KT 10SM CLR 29/11 A2981 RMK AO2=
KLAX 191753Z 25008KT 6SM BR OVC008 18/16 A2983 RMK AO2 SLP099 VIS W 2 T01830156
 10189 20172 50001=
KLGB 191753Z 19007KT 5SM HZ OVC015 21/17 A2982 RMK AO2 SLP097 T02110167 10211
 20178 50001 $=
KLPC 191756Z AUTO 27011KT 10SM CLR 19/14 A2982 RMK AO2 SLP101 60000 T01940144
 10200 20122 58007=
KLVK 191753Z VRB03KT 10SM CLR 29/07 A2975 RMK AO2 SLP068 T02890067 10294 20172
 50001=
KMAE 191753Z AUTO 30006KT 10SM CLR 36/13 A2972 RMK AO2 SLP060 T03610133 10367
 20189 58002=
KMCC 191755Z AUTO 24006KT 10SM CLR 31/10 A2972 RMK AO2=
KMCC 191815Z AUTO VRB06KT 10SM CLR 32/10 A2972 RMK AO2=
KMCE 191753Z AUTO 32006KT 10SM CLR 34/13 A2970 RMK AO2 SLP056 T03440128 10350
 20200 58001=
KMER 191745Z 28006KT 10SM SKC 36/12 A2972=
KMHR 191750Z 26006KT 10SM SKC 31/10 A2972=
KMHS 191756Z AUTO VRB04KT 10SM CLR 27/09 A2998 RMK AO2 SLP129 T02720094 10272
 20133 58007=
KMHV 191740Z AUTO VRB03KT 10SM CLR 38/05 A2985 RMK A01=
KMHV 191800Z AUTO VRB04KT 10SM CLR 39/04 A2984 RMK A01=
KMMH 191800Z AUTO 22012G19KT 10SM CLR 28/M05 A3024 RMK AO2=
KMOD 191753Z VRB06KT 10SM CLR 31/11 A2971 RMK AO2 SLP060 T03110111 10311 20222
 50002=
KMRY 191754Z VRB03KT 10SM SCT008 18/12 A2984 RMK AO2 SLP115 T01830122 10183
 20117 50002=
KMYF 191753Z 26007KT 220V290 10SM CLR 23/16 A2982 RMK AO2 SLP095 T02280156
 10228 20178 58001=
KMYV 191753Z AUTO VRB05KT 10SM CLR 33/07 A2972 RMK AO2 SLP066 T03330072 10339
 20194 58000=
KNFG 191755Z AUTO 21008KT 10SM CLR 23/16 A2981 RMK AO2 SLP094 T02330156 10233
 20189 58002=
KNID 191756Z AUTO 00000KT 10SM CLR 40/02 A2979 RMK AO2 SLP056 T04000017 10400
 20244 58006 $=
KNJK 191756Z 15008KT 10SM FEW120 39/16 A2961 RMK AO2 SLP043 T03940156 10400
 20256 58003 $=
KNKX 191755Z VRB05KT 10SM CLR 23/16 A2982 RMK AO2 SLP092 T02330161 10233 20167
 58002 $=
KNLC 191756Z 34007KT 10SM CLR 37/07 A2971 RMK AO2 SLP060 RH/17 T03670072 10367
 20200 56004=
KNRS 191756Z AUTO 9SM OVC010 A2984 RMK AO2 SLP106 54000 $=
KNSI 191753Z 04008KT 8SM BKN008 17/13 A2984 RMK AO2 SLP098 T01720128 10178
 20128 50000 $=
KNTD 191752Z 22008KT 10SM SCT004 OVC006 18/14 A2983 RMK AO2 DZE14 SLP103 P0000
 60000 T01830144 10183 20167 58001 VISNO N $=
KNUC 191756Z AUTO 24006KT 10SM OVC007 16/14 A2985 RMK AO2 SLP106 T01610139
 10167 20144 50000 $=
KNUQ 191755Z 35007KT 10SM CLR 22/15 A2977 RMK AO2=
KNUQ 191815Z AUTO 35008KT 7SM CLR 22/14 A2978 RMK AO2=
KNXP 191756Z AUTO 31008KT 10SM CLR 43/04 A2980 RMK AO2 SLP044 T04280039 10428
 20306 58008 $=
KNZY 191752Z 21006KT 10SM OVC009 18/15 A2983 RMK AO2 SLP100 T01830150 10183
 20172 51002=
KNZY 191826Z 19007KT 10SM OVC012 19/15 A2983 RMK AO2 T01890150=
KOAK 191753Z 28005KT 10SM SCT250 22/13 A2979 RMK AO2 SLP086 T02170128 10222
 20139 50004=
KOAR 191755Z AUTO 00000KT 10SM CLR 14/11 A2984 RMK AO2=
KOAR 191815Z AUTO 29005KT 10SM CLR 15/11 A2984 RMK AO2=
KONT 191753Z VRB05KT 9SM FEW140 FEW180 29/16 A2981 RMK AO2 SLP076 T02890156
 10289 20189 58004=
KOXR 191751Z 24005KT 8SM OVC005 17/15 A2983 RMK AO2 SLP100 T01720150 10178
 20167 51001=
KPAO 191747Z 36008KT 10SM SKC 21/14 A2978=
KPMD 191753Z 25007KT 10SM CLR 39/06 A2983 RMK AO2 SLP059 T03890056 10389 20256
 58007=
KPOC 191747Z 26007KT 10SM CLR 26/16 A2983=
KPRB 191753Z AUTO 17003KT 10SM CLR 32/07 A2978 RMK AO2 SLP075 T03170067 10317
 20156 58009=
KPSP 191753Z 15010KT 10SM CLR 42/13 A2963 RMK AO2 SLP027 T04220133 10422 20306
 57003 $=
KPTV 191756Z AUTO 24007KT 10SM CLR 37/12 A2973 RMK AO2 SLP063 T03670122 10367
 20233 58005=
KRAL 191753Z VRB05KT 10SM CLR 28/15 A2980 RMK AO2 SLP075 T02780150 10278 20178
 58006=
KRBL 191754Z AUTO VRB03KT 10SM CLR 36/10 A2972 RMK AO2 SLP058 T03610100 10361
 20217 58003=
KRDD 191753Z 34008KT 10SM CLR 38/10 A2971 RMK AO2 SLP051 T03780100 10378 20222
 58004=
KRHV 191747Z VRB05KT 10SM SKC 27/12 A2977=
KRIV 191758Z AUTO 01004KT 10SM CLR 31/16 A2982 RMK AO2 SLP083 T03120160 10312
 20173 58004=
KRNM 191753Z 30007KT 270V330 10SM CLR 28/15 A2983 RMK AO2 SLP084 T02830150
 10283 20133 58001=
KSAC 191753Z 24007KT 10SM CLR 31/09 A2972 RMK AO2 SLP064 T03110094 10311 20206
 50003=
KSAN 191751Z 22007KT 10SM OVC011 20/16 A2984 RMK AO2 SLP105 T02000156 10200
 20189 50003=
KSBA 191753Z 26004KT 5SM HZ OVC006 17/14 A2983 RMK AO2 SLP101 T01720144 10178
 20150 55001=
KSBD 191655Z 00000KT 7SM CLR 28/14 A2982=
KSBP 191756Z 00000KT 10SM CLR 23/13 A2981 RMK AO2 SLP094 T02280133 10228 20122
 58006=
KSCK 191755Z 36005KT 10SM CLR 31/11 A2972 RMK AO2 SLP064 T03060111 10311 20183
 50003=
KSDB 191753Z AUTO 17007KT 10SM CLR 35/08 A3002 RMK AO2 SLP611 T03500083 10350
 20267 58000=
KSDM 191753Z 28005KT 8SM CLR 23/14 A2983 RMK AO2 SLP096 T02280144 10228 20178
 51001=
KSEE 191748Z 27006KT 10SM SKC 26/16 A2981=
KSFO 191756Z 03006KT 10SM FEW010 FEW200 22/13 A2978 RMK AO2 SLP084 T02170133
 10217 20156 50004=
KSIY 191753Z AUTO 00000KT 10SM CLR 27/08 A2997 RMK AO2 SLP133 T02670078 10272
 20150 58009=
KSJC 191753Z 31006KT 10SM FEW080 FEW150 24/14 A2976 RMK AO2 SLP078 T02440144
 10256 20172 50000=
KSLI 191758Z 20007KT 10SM SCT015 23/18 A2982 RMK AO2A SLP101 T02270178 10227
 20176 58001=
KSMF 191753Z VRB04KT 10SM BKN250 29/12 A2972 RMK AO2 SLP064 T02890122 10289
 20206 51006=
KSMO 191751Z 23005KT 9SM OVC006 18/16 A2983 RMK AO2 SLP100 T01830156 10183
 20172 50001=
KSMX 191751Z 30006KT 8SM CLR 19/14 A2983 RMK AO2 SLP100 T01940139 10200 20111
 58004=
KSNA 191753Z 20007KT 10SM SCT015 SCT080 23/16 A2982 RMK AO2 SLP095 T02280156
 10233 20189 58001=
KSNS 191753Z 33009KT 10SM OVC008 17/12 A2983 RMK AO2 CIG 007V011 SLP110
 T01670122 10167 20133 50001=
KSNS 191821Z 33009KT 10SM SCT010 17/12 A2983 RMK AO2 T01720122=
KSQL 191751Z 35007KT 10SM SKC 22/13 A2979=
KSTS 191753Z VRB03KT 9SM CLR 24/11 A2976 RMK AO2 SLP070 T02440106 10244 20111
 58003=
KSUU 191758Z AUTO 24013KT 10SM CLR 30/07 A2973 RMK AO2 SLP074 T03040069 10304
 20185 50001 $=
KSVE 191755Z AUTO 07003KT 10SM CLR A3000 RMK AO2=
KSVE 191815Z AUTO 13005KT 10SM CLR 31/00 A3000 RMK AO2=
KTOA 191752Z 27008KT 4SM HZ SCT006 OVC012 22/17 A2983=
KTRK 191745Z AUTO 00000KT 10SM HZ SKC 27/04 A3014=
KTRM 191752Z AUTO 15011KT 10SM CLR 39/14 A2959 RMK AO2 SLP022 T03890144 10389
 20322 50000=
KTVL 191753Z AUTO 02007KT 310V040 10SM CLR 26/08 A3016 RMK AO2 SLP140 T02560078
 10261 20083 58004=
KUKI 191756Z AUTO 15004KT 10SM CLR 30/11 A2974 RMK AO2 SLP061 T03000106 10300
 20156 58009=
KVBG 191758Z AUTO 30007KT 10SM OVC003 15/15 A2984 RMK AO2 SLP108 60001
 T01490146 10149 20119 58001=
KVCV 191745Z 21004KT 10SM SKC A2986=
KVIS 191756Z AUTO 18007KT 10SM CLR 34/14 A2972 RMK AO2 SLP066 T03390144 10339
 20211 58002=
KVNY 191751Z 12007KT 10SM CLR 28/16 A2980 RMK AO2 SLP081 T02830156 10283 20178
 58006=
KWJF 191756Z 27008KT 10SM CLR 41/06 A2981 RMK AO2 SLP061 T04060056 10406 20228
 58008=
KWVI 191753Z AUTO VRB03KT 10SM FEW008 18/13 A2984 RMK AO2 SLP104 T01780128
 10178 20122 58002=